METAR Data
IDs: Format: Raw Decoded Include TAF

Data at: 1349 UTC 14 Dec 2019

PAPB 141253Z AUTO 05027G37KT 10SM OVC024 02/M01 A2891 RMK AO2 PK WND 05038/1243 SLP777 T00171006 TSNO $
PAPB 141217Z AUTO 06027G35KT 10SM BKN024 02/M01 A2891 RMK AO2 PK WND 06036/1158 T00171006 TSNO $
PAPB 141153Z AUTO 06029G37KT 10SM SCT025 02/M01 A2892 RMK AO2 PK WND 06037/1148 SLP782 60001 70003 T00171011 10017 20006 55009 TSNO $
PAPB 141148Z AUTO 06030G37KT 10SM SCT025 02/M01 A2892 RMK AO2 PK WND 06037/1148 TSNO $
PAPB 141053Z AUTO 06026G33KT 10SM SCT021 BKN026 01/M01 A2894 RMK AO2 PK WND 06033/1027 SLP788 T00111011 TSNO $
PAPB 141034Z AUTO 07026G33KT 10SM SCT019 BKN025 01/M02 A2894 RMK AO2 PK WND 06033/1027 T00111017 TSNO $
PAPB 140953Z AUTO 07023G32KT 10SM FEW020 SCT027 BKN032 01/M01 A2895 RMK AO2 PK WND 06032/0945 SLP792 T00111011 TSNO $
PAPB 140853Z AUTO 08021G31KT 10SM FEW017 BKN040 OVC065 01/00 A2897 RMK AO2 PK WND 08031/0846 UPB31E51 SLP799 P0000 60001 T00110000 400111083 58021 TSNO $
PAPB 140753Z AUTO 07019G26KT 10SM FEW025 BKN050 OVC100 01/M01 A2899 RMK AO2 PK WND 08031/0717 SLP806 T00111011 TSNO $
PAPB 140730Z AUTO 07018G30KT 10SM SCT026 OVC048 01/M01 A2900 RMK AO2 PK WND 08031/0717 T00061011 TSNO $
PAPB 140706Z AUTO 08022G30KT 10SM BKN026 OVC044 01/M01 A2901 RMK AO2 PK WND 08031/0656 T00061006 TSNO $
PAPB 140653Z AUTO 08024G30KT 10SM SCT024 OVC042 01/M01 A2901 RMK AO2 PK WND 08031/0633 SLP813 P0001 T00061006 TSNO $
PAPB 140616Z AUTO 08022G28KT 10SM BKN021 BKN028 OVC060 01/M01 A2902 RMK AO2 PK WND 08028/0555 T00061006 TSNO $
PAPB 140553Z AUTO 08021G28KT 10SM FEW015 BKN034 OVC090 01/M01 A2903 RMK AO2 PK WND 08029/0525 UPB06E45 SLP819 P0000 60001 T00061006 10006 21011 58023 TSNO $
PAPB 140537Z AUTO 09019KT 9SM UP FEW015 SCT020 OVC040 01/M01 A2904 RMK AO2 PK WND 08029/0525 UPB06 P0000 T00061006 TSNO $
PAPB 140453Z AUTO 08016KT 10SM BKN016 BKN024 OVC034 01/M01 A2906 RMK AO2 UPB0359E41B51E53RAB41E51SNE0359B06E17 SLP828 P0001 T00061006 TSNO $
PAPB 140443Z AUTO 09019KT 7SM RA SCT014 BKN020 OVC030 01/M01 A2906 RMK AO2 UPB0359E41RAB41SNE0359B06E17 P0001 T00061006 TSNO $
PAPB 140420Z AUTO 08017KT 9SM UP FEW017 OVC033 01/M01 A2907 RMK AO2 UPB0359SNE0359B06E17 P0001 T00061006 TSNO $
PAPB 140353Z AUTO 09017KT 7SM -SN FEW020 BKN025 OVC070 00/M01 A2908 RMK AO2 UPB39E40SNB38E39B40 SLP836 P0000 T00001006 TSNO $
PAPB 140342Z AUTO 09019G24KT 9SM -SN BKN024 BKN033 OVC070 01/M01 A2909 RMK AO2 UPB39E40SNB38E39B40 P0000 T00061006 TSNO $
PAPB 140253Z AUTO 09015KT 10SM SCT029 BKN043 OVC080 01/M02 A2910 RMK AO2 SNE02 SLP842 P0000 60000 T00061017 58025 TSNO $
PAPB 140153Z AUTO 07012KT 4SM -SN BR SCT030 BKN045 OVC085 00/M02 A2913 RMK AO2 SNB45 SLP851 P0000 T00001017 TSNO $
PAPB 140053Z AUTO 11011KT 10SM SCT039 BKN047 OVC080 00/M03 A2915 RMK AO2 SLP860 T00001033 TSNO
PAPB 132353Z AUTO 10008KT 10SM FEW033 FEW041 M01/M03 A2917 RMK AO2 SLP868 P0001 60001 T10111033 11011 21083 58026 TSNO
PAPB 132253Z AUTO 10008KT 8SM FEW027 FEW039 BKN047 M01/M02 A2921 RMK AO2 SNB43E52 SLP879 P0000 T10111017 TSNO
PAPB 132234Z AUTO 09007KT 10SM FEW050 M03/M03 A2922 RMK AO2 T10281028 TSNO
PAPB 132219Z AUTO 10007KT 1 3/4SM BR CLR M03/M03 A2923 RMK AO2 T10281028 TSNO
PAPB 132153Z AUTO 10007KT 10SM FEW029 FEW044 SCT050 M02/M03 A2924 RMK AO2 SNB19E35 SLP889 P0000 T10221028 TSNO
PAPB 132053Z AUTO 11007KT 10SM BKN055 M03/M06 A2925 RMK AO2 SLP893 T10331056 58003 TSNO
PAPB 131953Z AUTO 10007KT 10SM OVC045 M04/M06 A2926 RMK AO2 SLP896 T10441061 TSNO
PAPB 131853Z AUTO 10006KT 10SM CLR M07/M09 A2926 RMK AO2 SLP896 T10721089 TSNO
PAPB 131753Z AUTO 12003KT 10SM BKN039 M06/M08 A2926 RMK AO2 SLP897 60000 T10611083 11006 21083 56009 TSNO $
PAPB 131553Z AUTO 18005KT 10SM BKN042 M04/M08 A2928 RMK AO2 SLP903 T10391078 TSNO $
PAPB 131453Z AUTO 24009KT 10SM CLR M01/M06 A2929 RMK AO2 SLP906 60000 T10111056 58008 TSNO $
PAPB 131353Z AUTO 24010KT 10SM CLR M02/M06 A2930 RMK AO2 WSHFT 1249 SLP910 T10171056 TSNO $
PAPB 131309Z AUTO 26011KT 10SM FEW027 SCT037 M01/M04 A2931 RMK AO2 WSHFT 1249 T10111039 TSNO $
PAPB 131253Z AUTO 24013KT 10SM FEW048 BKN060 M02/M06 A2931 RMK AO2 SNB16E37 SLP912 P0000 T10171056 TSNO $
PAPB 131153Z AUTO 24011KT 10SM FEW046 M02/M04 A2931 RMK AO2 UPB21E31 SLP915 P0000 60000 T10171044 11006 21056 56003 TSNO $
PAPB 131053Z AUTO 24014KT 10SM FEW033 BKN085 OVC100 M01/M04 A2932 RMK AO2 SNB08E20 SLP916 P0000 T10061044 TSNO $
PAPB 130953Z AUTO 25012KT 10SM BKN045 BKN050 M01/M04 A2932 RMK AO2 SLP916 T10061039 TSNO $
PAPB 130934Z AUTO 28012KT 10SM FEW021 BKN040 OVC049 M01/M04 A2932 RMK AO2 T10061039 TSNO $
PAPB 130910Z AUTO 29010KT 10SM SCT019 BKN027 OVC040 M01/M03 A2932 RMK AO2 T10111028 TSNO $
PAPB 130853Z AUTO 23012KT 10SM FEW024 BKN041 BKN065 M01/M04 A2932 RMK AO2 SLP918 60000 T10061039 410061089 50000 TSNO $
PAPB 130814Z AUTO 22009KT 10SM FEW009 SCT020 SCT032 M01/M01 A2932 RMK AO2 T10111011 TSNO $
PAPB 130753Z AUTO 25009KT 10SM CLR M02/M04 A2932 RMK AO2 SLP918 T10171039 TSNO $
PAPB 130653Z AUTO 28016KT 7SM FEW011 BKN031 BKN037 M02/M02 A2932 RMK AO2 SNB0559E17 SLP918 P0000 T10171022 TSNO $
PAPB 130650Z AUTO 28016KT 8SM FEW011 BKN029 BKN037 M02/M02 A2932 RMK AO2 SNB0559E17 P0000 TSNO $
PAPB 130611Z AUTO 23004KT 4SM -SN BR FEW021 BKN031 OVC046 M02/M03 A2933 RMK AO2 SNB0559 P0000 T10221028 TSNO $
PAPB 130608Z AUTO 24004KT 2 1/2SM -SN BR FEW018 BKN027 OVC070 M02/M02 A2933 RMK AO2 SNB0559 P0000 T10221022 TSNO $
PAPB 130553Z AUTO 03004KT 10SM BKN047 BKN070 BKN085 M06/M06 A2933 RMK AO2 SLP922 60000 T10611061 11006 21072 56007 TSNO $
PAPB 130453Z AUTO 13003KT 10SM FEW011 SCT037 M05/M05 A2934 RMK AO2 SLP923 T10501050 TSNO $
PAPB 130353Z AUTO 18004KT 10SM FEW028 FEW041 FEW050 M05/M05 A2935 RMK AO2 SNE21 SLP927 P0000 T10501050 TSNO $
PAPB 130336Z AUTO 00000KT 10SM FEW007 SCT045 BKN090 M04/M04 A2935 RMK AO2 SNE21 P0000 T10391039 TSNO $
PAPB 130312Z AUTO 23008KT 4SM -SN BR FEW006 OVC016 M03/M03 A2936 RMK AO2 P0000 T10281028 TSNO $
PAPB 130310Z AUTO 24008KT 2SM -SN BR FEW006 OVC013 M03/M03 A2936 RMK AO2 P0000 T10281028 TSNO $
PAPB 130307Z AUTO 23007KT 1SM -SN BR FEW006 OVC011 M03/M03 A2936 RMK AO2 P0000 T10281028 TSNO $
PAPB 130253Z AUTO 25013KT 3/4SM -SN BR BKN006 BKN011 OVC026 M03/M03 A2935 RMK AO2 WSHFT 0230 UPB38E47SNE04B47 SLP929 P0000 60000 T10281028 55000 TSNO $
PAPB 130249Z AUTO 25014KT 1SM -SN BR FEW006 BKN009 OVC026 M02/M02 A2935 RMK AO2 WSHFT 0230 UPB38E47SNE04B47 P0000 TSNO $
PAPB 130247Z AUTO 25014KT 2 1/2SM -SN BR SCT006 BKN011 BKN023 M02/M02 A2936 RMK AO2 WSHFT 0230 UPB38E47SNE04B47 P0000 TSNO $
PAPB 130239Z AUTO 26015KT 8SM UP SCT008 BKN024 M02/M02 A2935 RMK AO2 UPB38SNE04 P0000 T10221022 TSNO $
PAPB 130206Z AUTO 00000KT 9SM SCT040 BKN048 M04/M04 A2935 RMK AO2 SNE04 P0000 T10391039 TSNO $
PAPB 130153Z AUTO 04004KT 6SM -SN BR BKN023 OVC043 M03/M03 A2935 RMK AO2 SNB0056 SLP927 P0000 T10331033 TSNO $